Airfield :
LOGIN :

Register | Disclaimer

   EN    FR    IT 

 










Legend :    VFR   Marginal VFR   IFR   Intensive IFR   Very Intensive IFR
Visi :
Ceiling :
>= 8 km
>= 3000ft
5 to 8 km
1000 to 3000 ft
1500m to 5 km
500 to 1000 ft
800 to 1500m
200 to 500 ft
< 800m
< 200 ft
Symbols :   Thunderstorms  Fog  Heavy snow  Heavy precipitations  Wind > 20 kt
SIGMETs :     Misc.  Thunderstorms  Icing  Turbulence  Mountain Waves  Volcanic Ashes






- Airport Elevation : 7 ft
- IATA code : VCE


LIPZ - Marco Polo Int. Venezia

CURRENT METAR :
  • 050620Z 32004KT 290V360 9999 SCT028 21/17 Q1005 NOSIG

EXPIRED METARs :
  • 050550Z 36007KT 9999 BKN026 20/17 Q1004 NOSIG
  • 050520Z 35005KT 320V030 9999 FEW017 BKN029 20/17 Q1004 NOSIG
  • 050450Z 35005KT 290V040 9999 FEW020 SCT035 19/17 Q1004 NOSIG
  • 050420Z 02003KT 340V050 9999 FEW020 SCT060 20/17 Q1004 NOSIG
  • 050350Z 32004KT 280V350 9999 FEW020 BKN030 20/18 Q1005 NOSIG

TAF TAF LIPZ
Valid from the 05 at 06:00 until the 06 at 12:00 UTC


050500Z 0506/0612 26008KT 9999 SCT040 BKN070
BECMG 0510/0512 14012KT
BECMG 0519/0521 03010KT
TEMPO 0519/0524 4000 TSRA



MET'MAP, your aeronautical weather chart ! - Copyright ORBIFLY December 2007 - Disclaimer

ORBIFLY MET'MAP TEAM :

Programming & Development : Alexandra Zaïnal
Concept & original design : Baudouin d'Aumeries
Assistance for programming : Marc-Olivier Méhu
Technical & hardware support : Manuel Goepfert

Contact : metmap@orbifly.com




SOURCES & CREDITS :

   NOAA